createdAt,value
2023-05-02T00:02:23.502Z,2.63
2023-05-02T00:04:51.583Z,2.40
2023-05-02T00:07:20.034Z,2.53
2023-05-02T00:09:47.540Z,2.95
2023-05-02T00:12:15.096Z,2.40
2023-05-02T00:14:42.531Z,2.17
2023-05-02T00:17:18.281Z,2.67
2023-05-02T00:19:46.775Z,2.78
2023-05-02T00:22:14.258Z,4.13
2023-05-02T00:24:41.908Z,3.65
2023-05-02T00:27:10.057Z,2.78
2023-05-02T00:29:38.199Z,3.95
2023-05-02T00:32:06.520Z,3.90
2023-05-02T00:34:33.928Z,3.78
2023-05-02T00:37:01.336Z,4.95
2023-05-02T00:39:28.951Z,4.03
2023-05-02T00:41:58.208Z,3.95
2023-05-02T00:46:54.202Z,3.50
2023-05-02T00:49:22.205Z,4.80
2023-05-02T00:51:50.048Z,4.55
2023-05-02T00:54:18.818Z,2.70
2023-05-02T00:56:46.987Z,2.35
2023-05-02T00:59:15.397Z,3.93
2023-05-02T01:02:15.373Z,3.90
2023-05-02T01:05:24.963Z,3.42
2023-05-02T01:08:18.606Z,3.40
2023-05-02T01:11:16.492Z,3.80
2023-05-02T01:13:46.309Z,3.80
2023-05-02T01:16:16.550Z,3.03
2023-05-02T01:18:46.838Z,3.03
2023-05-02T01:21:14.981Z,3.00
2023-05-02T01:24:18.857Z,4.43
2023-05-02T01:27:05.150Z,2.30
2023-05-02T01:29:34.024Z,2.65
2023-05-02T01:32:02.552Z,3.45
2023-05-02T01:34:31.544Z,4.10
2023-05-02T01:37:00.730Z,3.00
2023-05-02T01:39:29.706Z,3.65
2023-05-02T01:41:58.790Z,3.65
2023-05-02T01:44:28.058Z,3.85
2023-05-02T01:46:57.408Z,3.15
2023-05-02T01:49:26.688Z,4.15
2023-05-02T01:54:24.441Z,4.07
2023-05-02T01:56:52.520Z,4.70
2023-05-02T01:59:23.366Z,5.97
2023-05-02T02:01:52.442Z,4.93
2023-05-02T02:04:23.112Z,5.25
2023-05-02T02:07:05.753Z,4.57
2023-05-02T02:09:33.717Z,4.93
2023-05-02T02:12:16.902Z,6.25
2023-05-02T02:14:59.383Z,3.85
2023-05-02T02:17:36.913Z,3.90
2023-05-02T02:20:09.191Z,4.00
2023-05-02T02:22:40.077Z,3.92
2023-05-02T02:25:11.900Z,3.00
2023-05-02T02:27:40.882Z,5.78
2023-05-02T02:30:09.547Z,4.00
2023-05-02T02:32:38.639Z,4.13
2023-05-02T02:35:07.674Z,4.43
2023-05-02T02:38:09.737Z,4.38
2023-05-02T02:41:00.138Z,4.50
2023-05-02T02:43:58.382Z,5.28
2023-05-02T02:46:56.289Z,4.78
2023-05-02T02:49:48.034Z,5.07
2023-05-02T02:52:52.862Z,9.95
2023-05-02T02:55:39.680Z,6.85
2023-05-02T02:58:36.560Z,6.47
2023-05-02T03:01:10.139Z,6.85
2023-05-02T03:03:40.243Z,5.72
2023-05-02T03:06:08.264Z,6.65
2023-05-02T03:08:43.685Z,5.28
2023-05-02T03:11:16.023Z,5.25
2023-05-02T03:13:43.783Z,4.13
2023-05-02T03:18:40.763Z,11.70
2023-05-02T03:21:09.597Z,9.52
2023-05-02T03:23:37.278Z,7.40
2023-05-02T03:26:05.810Z,7.20
2023-05-02T03:28:34.313Z,7.57
2023-05-02T03:31:03.848Z,8.07
2023-05-02T03:33:35.870Z,9.15
2023-05-02T03:36:05.135Z,9.52
2023-05-02T03:38:34.863Z,8.93
2023-05-02T03:41:08.453Z,6.82
2023-05-02T03:43:38.269Z,7.43
2023-05-02T03:46:08.794Z,5.82
2023-05-02T03:48:40.415Z,6.05
2023-05-02T03:51:26.652Z,8.52
2023-05-02T03:56:44.922Z,5.78
2023-05-02T03:59:29.049Z,7.63
2023-05-02T04:01:58.939Z,7.18
2023-05-02T04:04:37.146Z,8.10
2023-05-02T04:07:08.202Z,9.68
2023-05-02T04:09:36.755Z,6.70
2023-05-02T04:12:09.771Z,6.30
2023-05-02T04:14:44.048Z,5.85
2023-05-02T04:17:18.218Z,6.90
2023-05-02T04:19:50.828Z,9.43
2023-05-02T04:22:20.773Z,7.15
2023-05-02T04:24:54.974Z,4.60
2023-05-02T04:27:23.321Z,3.75
2023-05-02T04:29:52.714Z,6.37
2023-05-02T04:32:20.843Z,7.22
2023-05-02T04:34:49.223Z,7.55
2023-05-02T04:37:18.690Z,9.13
2023-05-02T04:39:47.313Z,8.98
2023-05-02T04:42:19.343Z,5.53
2023-05-02T04:45:03.341Z,5.40
2023-05-02T04:47:33.923Z,6.05
2023-05-02T04:50:08.071Z,5.28
2023-05-02T04:52:36.737Z,5.10
2023-05-02T04:57:36.631Z,4.38
2023-05-02T05:00:05.762Z,3.90
2023-05-02T05:02:34.762Z,4.63
2023-05-02T05:05:02.910Z,2.83
2023-05-02T05:07:34.190Z,3.83
2023-05-02T05:10:03.389Z,6.45
2023-05-02T05:12:41.559Z,5.30
2023-05-02T05:15:11.781Z,5.72
2023-05-02T05:17:41.981Z,3.05
2023-05-02T05:20:12.372Z,2.23
2023-05-02T05:22:44.003Z,2.97
2023-05-02T05:25:21.228Z,2.80
2023-05-02T05:27:55.387Z,2.47
2023-05-02T05:30:30.458Z,4.70
2023-05-02T05:32:59.872Z,2.45
2023-05-02T05:35:33.775Z,2.40
2023-05-02T05:38:02.974Z,3.20
2023-05-02T05:40:40.657Z,3.15
2023-05-02T05:43:20.465Z,1.52
2023-05-02T05:45:55.465Z,1.58
2023-05-02T05:48:27.914Z,1.83
2023-05-02T05:51:08.195Z,1.67
2023-05-02T05:53:37.382Z,1.40
2023-05-02T05:56:13.045Z,1.23
2023-05-02T05:58:50.546Z,1.70
2023-05-02T06:01:21.057Z,2.17
2023-05-02T06:04:08.297Z,1.75
2023-05-02T06:06:43.313Z,1.88
2023-05-02T06:09:14.122Z,1.40
2023-05-02T06:12:01.170Z,2.00
2023-05-02T06:14:33.593Z,1.35
2023-05-02T06:17:08.291Z,1.77
2023-05-02T06:19:40.205Z,1.35
2023-05-02T06:22:08.051Z,1.33
2023-05-02T06:24:38.855Z,0.85
2023-05-02T06:27:06.526Z,1.30
2023-05-02T06:29:34.159Z,0.88
2023-05-02T06:32:05.820Z,1.45
2023-05-02T06:34:36.869Z,1.10
2023-05-02T06:37:10.484Z,1.05
2023-05-02T06:39:38.139Z,1.20
2023-05-02T06:42:09.879Z,0.75
2023-05-02T06:44:40.844Z,1.08
2023-05-02T06:47:08.593Z,0.98
2023-05-02T06:49:37.322Z,0.93
2023-05-02T06:52:08.424Z,0.85
2023-05-02T06:54:40.952Z,0.70
2023-05-02T06:57:10.413Z,1.08
2023-05-02T06:59:47.079Z,0.80
2023-05-02T07:02:25.102Z,1.05
2023-05-02T07:04:56.149Z,0.80
2023-05-02T07:07:23.811Z,1.48
2023-05-02T07:09:56.303Z,0.88
2023-05-02T07:12:38.091Z,1.20
2023-05-02T07:15:30.209Z,0.65
2023-05-02T07:17:57.770Z,1.15
2023-05-02T07:20:30.295Z,1.50
2023-05-02T07:23:02.454Z,1.50
2023-05-02T07:25:33.662Z,1.30
2023-05-02T07:28:03.077Z,1.52
2023-05-02T07:30:30.935Z,0.90
2023-05-02T07:33:00.283Z,1.17
2023-05-02T07:35:30.744Z,0.70
2023-05-02T07:37:59.444Z,1.15
2023-05-02T07:40:32.662Z,1.77
2023-05-02T07:43:05.886Z,1.20
2023-05-02T07:45:35.613Z,0.90
2023-05-02T07:48:03.755Z,0.93
2023-05-02T07:50:32.379Z,1.60
2023-05-02T07:53:03.273Z,1.15
2023-05-02T07:55:54.183Z,2.03
2023-05-02T07:58:21.531Z,1.13
2023-05-02T08:00:49.747Z,0.95
2023-05-02T08:03:20.085Z,0.95
2023-05-02T08:05:49.441Z,1.10
2023-05-02T08:08:19.769Z,1.25
2023-05-02T08:10:47.359Z,1.27
2023-05-02T08:13:18.073Z,1.13
2023-05-02T08:15:45.755Z,1.40
2023-05-02T08:18:14.054Z,1.00
2023-05-02T08:21:00.508Z,3.08
2023-05-02T08:23:33.983Z,1.05
2023-05-02T08:26:04.971Z,1.52
2023-05-02T08:28:39.977Z,1.15
2023-05-02T08:31:08.561Z,1.83
2023-05-02T08:33:36.457Z,1.63
2023-05-02T08:36:13.288Z,1.05
2023-05-02T08:38:42.334Z,2.25
2023-05-02T08:41:16.283Z,1.33
2023-05-02T08:43:45.762Z,1.80
2023-05-02T08:46:15.498Z,1.10
2023-05-02T08:48:47.676Z,1.13
2023-05-02T08:53:49.810Z,1.10
2023-05-02T08:56:19.228Z,1.27
2023-05-02T08:58:50.476Z,2.03
2023-05-02T09:01:29.187Z,2.28
2023-05-02T09:03:58.977Z,1.85
2023-05-02T09:06:29.686Z,1.15
2023-05-02T09:09:00.546Z,0.90
2023-05-02T09:11:32.286Z,1.60
2023-05-02T09:14:12.606Z,1.63
2023-05-02T09:16:40.659Z,0.90
2023-05-02T09:19:10.531Z,0.98
2023-05-02T09:21:43.489Z,0.80
2023-05-02T09:24:43.266Z,1.13
2023-05-02T09:27:13.818Z,1.30
2023-05-02T09:29:49.850Z,1.80
2023-05-02T09:32:45.744Z,1.17
2023-05-02T09:35:25.349Z,1.05
2023-05-02T09:37:57.886Z,2.15
2023-05-02T09:40:45.653Z,0.70
2023-05-02T09:43:22.923Z,1.05
2023-05-02T09:46:08.104Z,1.40
2023-05-02T09:49:13.319Z,1.63
2023-05-02T09:51:49.714Z,0.95
2023-05-02T09:54:38.007Z,1.05
2023-05-02T09:57:13.007Z,0.60
2023-05-02T10:00:01.051Z,1.38
2023-05-02T10:02:34.282Z,2.13
2023-05-02T10:05:08.612Z,2.30
2023-05-02T10:07:37.787Z,1.48
2023-05-02T10:10:25.237Z,1.52
2023-05-02T10:12:56.636Z,2.20
2023-05-02T10:15:32.436Z,1.08
2023-05-02T10:18:05.977Z,2.40
2023-05-02T10:20:42.740Z,3.42
2023-05-02T10:23:20.813Z,1.38
2023-05-02T10:25:54.269Z,1.40
2023-05-02T10:28:21.700Z,1.55
2023-05-02T10:30:57.338Z,1.67
2023-05-02T10:33:33.556Z,1.08
2023-05-02T10:36:02.150Z,1.13
2023-05-02T10:38:33.155Z,1.40
2023-05-02T10:41:22.774Z,1.88
2023-05-02T10:43:58.003Z,1.10
2023-05-02T10:46:40.869Z,1.17
2023-05-02T10:49:19.658Z,1.10
2023-05-02T10:51:51.684Z,1.13
2023-05-02T10:54:23.576Z,0.63
2023-05-02T10:57:06.981Z,0.55
2023-05-02T10:59:42.454Z,0.50
2023-05-02T11:02:25.555Z,0.88
2023-05-02T11:05:08.688Z,0.88
2023-05-02T11:07:40.052Z,0.80
2023-05-02T11:10:27.662Z,0.65
2023-05-02T11:13:00.363Z,0.75
2023-05-02T11:15:28.247Z,0.35
2023-05-02T11:18:15.586Z,0.60
2023-05-02T11:20:45.135Z,0.38
2023-05-02T11:23:24.535Z,0.50
2023-05-02T11:26:02.083Z,0.50
2023-05-02T11:28:47.377Z,0.73
2023-05-02T11:31:31.120Z,0.57
2023-05-02T11:34:05.029Z,0.65
2023-05-02T11:36:37.344Z,0.55
2023-05-02T11:39:19.336Z,1.10
2023-05-02T11:41:55.669Z,0.70
2023-05-02T11:44:26.291Z,0.57
2023-05-02T11:46:56.945Z,0.65
2023-05-02T11:49:25.046Z,1.42
2023-05-02T11:51:58.236Z,1.00
2023-05-02T11:54:30.284Z,0.80
2023-05-02T11:57:01.364Z,0.40
2023-05-02T11:59:29.898Z,0.40
2023-05-02T12:01:57.606Z,1.15
2023-05-02T12:04:25.908Z,0.77
2023-05-02T12:06:58.483Z,0.30
2023-05-02T12:09:26.307Z,0.93
2023-05-02T12:11:57.344Z,1.30
2023-05-02T12:14:33.569Z,0.75
2023-05-02T12:17:03.461Z,0.80
2023-05-02T12:19:36.716Z,0.70
2023-05-02T12:22:07.396Z,1.38
2023-05-02T12:24:43.352Z,0.30
2023-05-02T12:27:13.540Z,0.85
2023-05-02T12:29:46.912Z,0.60
2023-05-02T12:32:29.163Z,0.85
2023-05-02T12:35:01.929Z,0.80
2023-05-02T12:37:32.247Z,0.73
2023-05-02T12:40:00.069Z,0.35
2023-05-02T12:42:37.013Z,0.82
2023-05-02T12:45:18.193Z,1.05
2023-05-02T12:47:54.364Z,0.93
2023-05-02T12:50:47.582Z,1.33
2023-05-02T12:53:43.127Z,1.52
2023-05-02T12:56:20.393Z,0.77
2023-05-02T12:58:54.505Z,2.22
2023-05-02T13:01:28.880Z,3.47
2023-05-02T13:04:01.602Z,2.00
2023-05-02T13:06:31.869Z,2.58
2023-05-02T13:09:06.710Z,1.42
2023-05-02T13:11:34.276Z,2.03
2023-05-02T13:14:06.479Z,3.90
2023-05-02T13:16:38.681Z,3.25
2023-05-02T13:19:09.790Z,4.53
2023-05-02T13:21:42.169Z,2.60
2023-05-02T13:24:10.725Z,1.65
2023-05-02T13:26:38.455Z,0.80
2023-05-02T13:29:14.160Z,1.65
2023-05-02T13:31:42.218Z,2.30
2023-05-02T13:34:18.965Z,2.05
2023-05-02T13:36:47.175Z,1.63
2023-05-02T13:39:15.335Z,1.42
2023-05-02T13:41:43.830Z,0.55
2023-05-02T13:44:15.290Z,0.68
2023-05-02T13:46:47.843Z,1.25
2023-05-02T13:49:23.053Z,0.90
2023-05-02T13:51:54.013Z,0.77
2023-05-02T13:54:33.877Z,0.43
2023-05-02T13:57:12.945Z,0.80
2023-05-02T13:59:57.115Z,1.08
2023-05-02T14:02:35.717Z,0.93
2023-05-02T14:05:13.918Z,0.85
2023-05-02T14:07:44.254Z,0.82
2023-05-02T14:10:18.626Z,0.50
2023-05-02T14:12:46.053Z,0.93
2023-05-02T14:15:14.262Z,0.75
2023-05-02T14:20:13.500Z,0.50
2023-05-02T14:23:11.610Z,0.60
2023-05-02T14:25:42.769Z,0.38
2023-05-02T14:28:10.405Z,0.60
2023-05-02T14:30:38.482Z,0.85
2023-05-02T14:33:09.279Z,0.40
2023-05-02T14:35:39.648Z,0.50
2023-05-02T14:38:20.162Z,0.35
2023-05-02T14:41:06.346Z,0.60
2023-05-02T14:43:35.832Z,1.30
2023-05-02T14:46:07.546Z,1.15
2023-05-02T14:48:38.045Z,1.70
2023-05-02T14:51:11.990Z,0.73
2023-05-02T14:53:40.661Z,1.58
2023-05-02T14:56:17.554Z,1.23
2023-05-02T14:58:47.470Z,0.55
2023-05-02T15:01:24.438Z,1.83
2023-05-02T15:04:05.832Z,1.80
2023-05-02T15:06:35.243Z,0.40
2023-05-02T15:11:36.184Z,0.50
2023-05-02T15:14:12.620Z,0.75
2023-05-02T15:16:48.630Z,0.82
2023-05-02T15:19:31.347Z,0.82
2023-05-02T15:22:01.486Z,0.80
2023-05-02T15:24:29.344Z,0.60
2023-05-02T15:27:00.324Z,0.90
2023-05-02T15:29:28.590Z,0.68
2023-05-02T15:31:56.848Z,0.60
2023-05-02T15:34:24.402Z,0.70
2023-05-02T15:36:53.233Z,0.80
2023-05-02T15:39:22.080Z,0.52
2023-05-02T15:41:49.973Z,0.73
2023-05-02T15:44:17.755Z,0.67
2023-05-02T15:46:47.309Z,0.52
2023-05-02T15:49:15.230Z,1.00
2023-05-02T15:51:43.167Z,0.98
2023-05-02T15:54:10.725Z,0.63
2023-05-02T15:56:38.268Z,0.80
2023-05-02T15:59:06.357Z,0.50
2023-05-02T16:01:41.231Z,0.63
2023-05-02T16:04:09.288Z,0.93
2023-05-02T16:06:58.969Z,0.82
2023-05-02T16:09:30.578Z,1.15
2023-05-02T16:12:01.193Z,1.35
2023-05-02T16:14:29.638Z,1.92
2023-05-02T16:16:59.030Z,0.98
2023-05-02T16:19:26.755Z,1.30
2023-05-02T16:21:54.318Z,1.15
2023-05-02T16:24:22.637Z,1.30
2023-05-02T16:26:51.132Z,2.70
2023-05-02T16:29:25.454Z,1.83
2023-05-02T16:31:56.248Z,1.17
2023-05-02T16:34:24.392Z,1.60
2023-05-02T16:36:53.145Z,0.70
2023-05-02T16:41:52.110Z,1.00
2023-05-02T16:44:22.683Z,0.82
2023-05-02T16:46:51.880Z,0.88
2023-05-02T16:49:20.214Z,1.27
2023-05-02T16:51:50.778Z,0.65
2023-05-02T16:54:19.210Z,1.10
2023-05-02T16:56:47.950Z,1.08
2023-05-02T16:59:16.932Z,0.95
2023-05-02T17:01:45.319Z,1.38
2023-05-02T17:04:13.264Z,0.68
2023-05-02T17:06:50.976Z,1.48
2023-05-02T17:09:26.986Z,1.48
2023-05-02T17:11:55.555Z,0.98
2023-05-02T17:14:23.037Z,1.17
2023-05-02T17:16:53.701Z,1.75
2023-05-02T17:19:21.578Z,1.33
2023-05-02T17:22:08.722Z,1.17
2023-05-02T17:24:37.259Z,1.02
2023-05-02T17:27:13.293Z,1.52
2023-05-02T17:29:43.495Z,1.70
2023-05-02T17:32:15.363Z,1.23
2023-05-02T17:34:50.050Z,1.13
2023-05-02T17:37:28.121Z,0.90
2023-05-02T17:39:55.965Z,1.25
2023-05-02T17:42:23.782Z,1.58
2023-05-02T17:44:52.444Z,1.10
2023-05-02T17:49:57.033Z,1.25
2023-05-02T17:52:27.822Z,1.65
2023-05-02T17:54:56.905Z,1.65
2023-05-02T18:00:14.991Z,1.45
2023-05-02T18:02:51.477Z,1.55
2023-05-02T18:05:19.378Z,1.50
2023-05-02T18:07:48.053Z,1.35
2023-05-02T18:10:15.729Z,1.33
2023-05-02T18:12:43.287Z,3.00
2023-05-02T18:15:11.172Z,1.25
2023-05-02T18:17:38.850Z,1.30
2023-05-02T18:20:09.282Z,1.67
2023-05-02T18:22:37.538Z,1.77
2023-05-02T18:25:06.110Z,2.08
2023-05-02T18:27:33.778Z,1.67
2023-05-02T18:30:01.728Z,1.65
2023-05-02T18:32:30.936Z,1.58
2023-05-02T18:35:00.251Z,0.98
2023-05-02T18:37:30.918Z,1.65
2023-05-02T18:40:01.026Z,3.15
2023-05-02T18:42:31.701Z,2.40
2023-05-02T18:45:00.883Z,1.50
2023-05-02T18:47:30.977Z,2.47
2023-05-02T18:49:59.552Z,2.90
2023-05-02T18:52:30.264Z,3.45
2023-05-02T18:54:57.741Z,3.75
2023-05-02T18:57:25.209Z,2.13
2023-05-02T18:59:52.880Z,2.08
2023-05-02T19:02:21.385Z,1.73
2023-05-02T19:04:49.128Z,1.70
2023-05-02T19:07:16.579Z,1.85
2023-05-02T19:09:44.177Z,1.95
2023-05-02T19:12:11.571Z,2.42
2023-05-02T19:14:39.693Z,2.55
2023-05-02T19:17:07.075Z,2.03
2023-05-02T19:19:34.667Z,5.32
2023-05-02T19:22:02.229Z,1.63
2023-05-02T19:24:30.001Z,1.65
2023-05-02T19:26:57.517Z,2.40
2023-05-02T19:29:25.544Z,1.85
2023-05-02T19:31:53.137Z,3.10
2023-05-02T19:34:20.947Z,2.53
2023-05-02T19:36:48.721Z,1.80
2023-05-02T19:39:16.537Z,1.58
2023-05-02T19:41:44.156Z,1.88
2023-05-02T19:44:11.842Z,1.02
2023-05-02T19:46:39.450Z,1.85
2023-05-02T19:49:07.165Z,1.52
2023-05-02T19:51:34.842Z,1.40
2023-05-02T19:54:02.565Z,1.40
2023-05-02T19:56:29.920Z,1.48
2023-05-02T19:58:58.076Z,2.17
2023-05-02T20:01:28.746Z,1.90
2023-05-02T20:03:57.140Z,1.60
2023-05-02T20:06:25.586Z,1.60
2023-05-02T20:08:53.444Z,2.95
2023-05-02T20:11:20.992Z,2.40
2023-05-02T20:13:48.634Z,2.05
2023-05-02T20:16:16.230Z,2.00
2023-05-02T20:18:44.812Z,1.98
2023-05-02T20:21:12.416Z,1.90
2023-05-02T20:23:42.742Z,2.25
2023-05-02T20:26:10.314Z,1.92
2023-05-02T20:28:37.840Z,1.92
2023-05-02T20:31:05.399Z,1.70
2023-05-02T20:33:43.985Z,2.35
2023-05-02T20:36:14.150Z,2.40
2023-05-02T20:38:41.956Z,3.13
2023-05-02T20:41:11.734Z,2.55
2023-05-02T20:43:40.925Z,2.03
2023-05-02T20:46:13.334Z,1.90
2023-05-02T20:48:41.164Z,1.60
2023-05-02T20:51:08.867Z,1.98
2023-05-02T20:53:37.319Z,1.55
2023-05-02T20:56:05.510Z,1.45
2023-05-02T20:58:32.973Z,1.20
2023-05-02T21:01:00.598Z,1.88
2023-05-02T21:03:28.342Z,1.30
2023-05-02T21:05:59.002Z,2.72
2023-05-02T21:08:26.424Z,2.08
2023-05-02T21:10:53.951Z,1.80
2023-05-02T21:13:22.205Z,1.75
2023-05-02T21:15:51.118Z,2.22
2023-05-02T21:18:20.951Z,3.33
2023-05-02T21:20:48.841Z,1.52
2023-05-02T21:23:16.463Z,2.17
2023-05-02T21:25:44.147Z,2.35
2023-05-02T21:28:12.085Z,2.63
2023-05-02T21:30:39.549Z,3.42
2023-05-02T21:33:07.068Z,2.40
2023-05-02T21:35:34.784Z,1.45
2023-05-02T21:38:02.641Z,1.73
2023-05-02T21:40:31.370Z,1.40
2023-05-02T21:42:59.082Z,1.02
2023-05-02T21:45:26.626Z,1.17
2023-05-02T21:47:54.287Z,1.38
2023-05-02T21:50:22.360Z,2.92
2023-05-02T21:52:49.832Z,1.05
2023-05-02T21:55:17.496Z,1.48
2023-05-02T21:57:45.095Z,1.80
2023-05-02T22:00:13.223Z,1.38
2023-05-02T22:02:42.878Z,1.90
2023-05-02T22:05:10.897Z,1.17
2023-05-02T22:07:38.524Z,1.52
2023-05-02T22:10:07.434Z,1.70
2023-05-02T22:12:35.442Z,1.92
2023-05-02T22:15:09.058Z,1.40
2023-05-02T22:17:36.632Z,1.73
2023-05-02T22:20:07.744Z,2.20
2023-05-02T22:22:35.172Z,2.53
2023-05-02T22:25:02.750Z,2.22
2023-05-02T22:27:30.451Z,2.22
2023-05-02T22:29:57.994Z,2.60
2023-05-02T22:32:26.192Z,3.03
2023-05-02T22:34:53.921Z,3.10
2023-05-02T22:37:21.400Z,1.85
2023-05-02T22:39:49.179Z,1.30
2023-05-02T22:42:17.046Z,1.40
2023-05-02T22:44:54.195Z,1.90
2023-05-02T22:47:22.115Z,1.42
2023-05-02T22:49:50.408Z,1.30
2023-05-02T22:52:17.831Z,1.53
2023-05-02T22:54:45.342Z,1.77
2023-05-02T22:57:12.703Z,1.90
2023-05-02T22:59:40.088Z,1.90
2023-05-02T23:02:11.111Z,1.92
2023-05-02T23:04:38.600Z,1.80
2023-05-02T23:07:06.154Z,2.10
2023-05-02T23:09:33.447Z,1.77
2023-05-02T23:12:05.239Z,2.20
2023-05-02T23:14:32.855Z,1.90
2023-05-02T23:17:03.478Z,1.52
2023-05-02T23:19:31.245Z,1.85
2023-05-02T23:21:59.223Z,1.55
2023-05-02T23:24:27.276Z,1.58
2023-05-02T23:26:55.185Z,1.83
2023-05-02T23:29:23.271Z,1.65
2023-05-02T23:31:52.892Z,1.90
2023-05-02T23:34:21.409Z,1.52
2023-05-02T23:36:50.663Z,1.67
2023-05-02T23:41:45.774Z,1.77
2023-05-02T23:44:13.432Z,1.92
2023-05-02T23:46:41.202Z,2.60
2023-05-02T23:49:08.934Z,1.75
2023-05-02T23:51:37.189Z,1.70
2023-05-02T23:54:04.740Z,1.85
2023-05-02T23:56:32.198Z,1.52
2023-05-02T23:58:59.639Z,1.23
